マガダン の空港の天気 - METARとTAF

マガダン・ソコル空港 ( UHMM / GDX ) - ロシア マガダン
飛行場実況気象(Metar)
観測時間09/23 21:00 MAGT (09/23 10:00 UTC)
風向・風速静穏 0m/s
視程10km以上
天気現象
全天の8割程度の雲 雲底高度 820m
気温2℃
湿度100%
気圧1008hPa
METARUHMM 231000Z 00000MPS 9999 BKN027CB 02/02 Q1008 RMK QFE741
過去の天気等 Google飛行場航空写真 Wunderground天気予報

過去48時間のMETAR

飛行場予報(TAF)
発表時間: 9/23 18:50 MAGT (9/23 07:50 UTC)
予報対象時間: 23日20時 MAGT ~ 25日2時 MAGT
風向・風速南西 3m/s 瞬間風速 10m/s
視程10km以上
全天の8割程度の積乱雲 雲底高度 760m
全天を覆う雲 雲底高度 2,130m
23日20時 MAGT ~ 23日23時 MAGT に一時的に
視程5,000m
天気現象弱いしゅう雨
全天の4割程度の雲 雲底高度 340m
全天の8割程度の積乱雲 雲底高度 610m
23日23時 MAGT ~ 24日1時 MAGT に徐々に
風向・風速不定 1m/s
24日1時 MAGT ~ 24日10時 MAGT に一時的に
視程3,100m
天気現象もや
24日11時 MAGT から
風向・風速北 3m/s 瞬間風速 8m/s
視程10km以上
全天の4割程度の雲 雲底高度 910m
全天の8割程度の雲 雲底高度 2,130m
TAF UHMM 230750Z 2309/2415 22003G10MPS 9999 BKN025CB OVC070
TEMPO 2309/2312 5000 -SHRA SCT011 BKN020CB
BECMG 2312/2314 VRB01MPS
TEMPO 2314/2323 3100 BR
FM240000 36003G08MPS 9999 SCT030 BKN070